createdAt,value
2018-09-21T00:00:46.221Z,100.00
2018-09-21T00:03:15.412Z,100.00
2018-09-21T00:05:44.668Z,100.00
2018-09-21T00:08:13.813Z,100.00
2018-09-21T00:10:42.965Z,100.00
2018-09-21T00:13:12.220Z,100.00
2018-09-21T00:15:41.400Z,100.00
2018-09-21T00:18:10.525Z,100.00
2018-09-21T00:20:39.714Z,100.00
2018-09-21T00:23:09.039Z,100.00
2018-09-21T00:25:38.177Z,100.00
2018-09-21T00:28:07.371Z,100.00
2018-09-21T00:30:40.271Z,100.00
2018-09-21T00:33:09.644Z,100.00
2018-09-21T00:35:39.018Z,100.00
2018-09-21T00:38:08.143Z,100.00
2018-09-21T00:40:37.436Z,100.00
2018-09-21T00:43:06.712Z,100.00
2018-09-21T00:45:35.845Z,100.00
2018-09-21T00:48:05.021Z,100.00
2018-09-21T00:50:34.158Z,100.00
2018-09-21T00:53:03.328Z,100.00
2018-09-21T00:55:32.655Z,100.00
2018-09-21T00:58:01.958Z,100.00
2018-09-21T01:00:31.101Z,100.00
2018-09-21T01:03:03.598Z,100.00
2018-09-21T01:05:32.859Z,100.00
2018-09-21T01:08:01.990Z,100.00
2018-09-21T01:10:31.187Z,100.00
2018-09-21T01:13:00.315Z,100.00
2018-09-21T01:15:29.476Z,100.00
2018-09-21T01:17:58.653Z,100.00
2018-09-21T01:20:27.776Z,100.00
2018-09-21T01:22:56.941Z,100.00
2018-09-21T01:25:26.209Z,100.00
2018-09-21T01:27:55.349Z,100.00
2018-09-21T01:30:24.498Z,100.00
2018-09-21T01:32:53.729Z,100.00
2018-09-21T01:35:23.033Z,100.00
2018-09-21T01:37:52.319Z,100.00
2018-09-21T01:40:22.242Z,100.00
2018-09-21T01:42:51.366Z,100.00
2018-09-21T01:45:20.550Z,100.00
2018-09-21T01:47:49.712Z,100.00
2018-09-21T01:50:18.869Z,100.00
2018-09-21T01:52:48.018Z,100.00
2018-09-21T01:55:17.170Z,100.00
2018-09-21T01:57:46.930Z,100.00
2018-09-21T02:00:16.133Z,100.00
2018-09-21T02:02:45.257Z,100.00
2018-09-21T02:05:14.427Z,100.00
2018-09-21T02:07:43.561Z,100.00
2018-09-21T02:10:14.444Z,100.00
2018-09-21T02:12:43.583Z,100.00
2018-09-21T02:15:12.725Z,100.00
2018-09-21T02:17:41.885Z,100.00
2018-09-21T02:20:11.010Z,100.00
2018-09-21T02:22:40.183Z,100.00
2018-09-21T02:25:09.379Z,100.00
2018-09-21T02:27:38.513Z,100.00
2018-09-21T02:30:07.740Z,100.00
2018-09-21T02:32:36.892Z,100.00
2018-09-21T02:35:06.488Z,100.00
2018-09-21T02:37:35.623Z,100.00
2018-09-21T02:40:04.991Z,100.00
2018-09-21T02:42:34.142Z,100.00
2018-09-21T02:45:03.292Z,100.00
2018-09-21T02:47:32.461Z,100.00
2018-09-21T02:50:01.599Z,100.00
2018-09-21T02:52:30.788Z,100.00
2018-09-21T02:54:59.933Z,100.00
2018-09-21T02:57:29.120Z,100.00
2018-09-21T02:59:58.491Z,100.00
2018-09-21T03:02:27.684Z,100.00
2018-09-21T03:04:57.401Z,100.00
2018-09-21T03:07:26.596Z,100.00
2018-09-21T03:09:55.926Z,100.00
2018-09-21T03:12:25.093Z,100.00
2018-09-21T03:14:54.284Z,100.00
2018-09-21T03:17:23.424Z,100.00
2018-09-21T03:19:52.580Z,100.00
2018-09-21T03:22:21.716Z,100.00
2018-09-21T03:24:50.913Z,100.00
2018-09-21T03:27:20.062Z,100.00
2018-09-21T03:29:49.193Z,100.00
2018-09-21T03:32:18.357Z,100.00
2018-09-21T03:34:47.542Z,100.00
2018-09-21T03:37:16.691Z,100.00
2018-09-21T03:39:45.845Z,100.00
2018-09-21T03:42:14.997Z,100.00
2018-09-21T03:44:44.133Z,100.00
2018-09-21T03:47:13.263Z,100.00
2018-09-21T03:49:42.668Z,100.00
2018-09-21T03:52:11.821Z,100.00
2018-09-21T03:54:40.993Z,100.00
2018-09-21T03:57:10.179Z,100.00
2018-09-21T03:59:39.325Z,100.00
2018-09-21T04:02:08.560Z,100.00
2018-09-21T04:04:41.182Z,100.00
2018-09-21T04:07:11.113Z,100.00
2018-09-21T04:09:40.277Z,100.00
2018-09-21T04:12:09.412Z,100.00
2018-09-21T04:14:38.582Z,100.00
2018-09-21T04:17:07.968Z,100.00
2018-09-21T04:19:37.197Z,100.00
2018-09-21T04:22:06.357Z,100.00
2018-09-21T04:24:35.507Z,100.00
2018-09-21T04:27:04.839Z,100.00
2018-09-21T04:29:34.107Z,100.00
2018-09-21T04:32:03.329Z,100.00
2018-09-21T04:34:32.579Z,100.00
2018-09-21T04:37:01.761Z,100.00
2018-09-21T04:39:31.228Z,100.00
2018-09-21T04:42:00.344Z,100.00
2018-09-21T04:44:29.487Z,100.00
2018-09-21T04:46:58.615Z,100.00
2018-09-21T04:49:27.733Z,100.00
2018-09-21T04:51:56.903Z,100.00
2018-09-21T04:54:26.024Z,100.00
2018-09-21T04:56:55.253Z,100.00
2018-09-21T04:59:24.409Z,100.00
2018-09-21T05:01:53.529Z,100.00
2018-09-21T05:04:22.694Z,100.00
2018-09-21T05:06:51.907Z,100.00
2018-09-21T05:09:21.048Z,100.00
2018-09-21T05:11:50.205Z,100.00
2018-09-21T05:14:19.421Z,100.00
2018-09-21T05:16:48.606Z,100.00
2018-09-21T05:19:17.778Z,100.00
2018-09-21T05:21:46.932Z,100.00
2018-09-21T05:24:16.051Z,100.00
2018-09-21T05:26:45.173Z,100.00
2018-09-21T05:29:14.316Z,100.00
2018-09-21T05:31:43.454Z,100.00
2018-09-21T05:34:12.632Z,100.00
2018-09-21T05:36:41.742Z,100.00
2018-09-21T05:39:13.094Z,100.00
2018-09-21T05:41:42.254Z,100.00
2018-09-21T05:44:12.076Z,100.00
2018-09-21T05:46:41.981Z,100.00
2018-09-21T05:49:11.137Z,100.00
2018-09-21T05:51:40.323Z,100.00
2018-09-21T05:54:09.448Z,100.00
2018-09-21T05:56:39.331Z,100.00
2018-09-21T05:59:08.593Z,100.00
2018-09-21T06:01:37.794Z,100.00
2018-09-21T06:04:07.054Z,100.00
2018-09-21T06:06:36.241Z,100.00
2018-09-21T06:09:08.561Z,100.00
2018-09-21T06:11:37.818Z,100.00
2018-09-21T06:14:07.331Z,100.00
2018-09-21T06:16:36.397Z,100.00
2018-09-21T06:19:05.806Z,100.00
2018-09-21T06:21:35.285Z,100.00
2018-09-21T06:24:04.923Z,100.00
2018-09-21T06:26:34.052Z,100.00
2018-09-21T06:29:03.198Z,100.00
2018-09-21T06:31:32.340Z,100.00
2018-09-21T06:34:01.489Z,100.00
2018-09-21T06:36:30.623Z,100.00
2018-09-21T06:38:59.796Z,100.00
2018-09-21T06:41:28.967Z,100.00
2018-09-21T06:43:58.468Z,100.00
2018-09-21T06:46:27.597Z,100.00
2018-09-21T06:48:56.724Z,100.00
2018-09-21T06:51:25.874Z,100.00
2018-09-21T06:53:55.054Z,100.00
2018-09-21T06:56:25.079Z,100.00
2018-09-21T06:58:55.090Z,100.00
2018-09-21T07:01:24.898Z,100.00
2018-09-21T07:03:54.233Z,100.00
2018-09-21T07:06:23.462Z,100.00
2018-09-21T07:08:54.321Z,100.00
2018-09-21T07:11:23.678Z,100.00
2018-09-21T07:13:53.213Z,99.34
2018-09-21T07:16:22.718Z,98.78
2018-09-21T07:18:52.594Z,97.90
2018-09-21T07:21:22.595Z,96.83
2018-09-21T07:23:51.769Z,95.80
2018-09-21T07:26:20.940Z,94.62
2018-09-21T07:28:50.658Z,92.53
2018-09-21T07:31:19.836Z,92.53
2018-09-21T07:33:49.126Z,91.17
2018-09-21T07:36:18.248Z,91.52
2018-09-21T07:38:47.552Z,90.83
2018-09-21T07:41:16.905Z,91.71
2018-09-21T07:43:46.601Z,90.73
2018-09-21T07:46:15.968Z,89.42
2018-09-21T07:48:45.170Z,88.94
2018-09-21T07:51:14.372Z,89.66
2018-09-21T07:53:43.689Z,88.95
2018-09-21T07:56:13.045Z,88.45
2018-09-21T07:58:42.270Z,87.66
2018-09-21T08:01:11.529Z,87.05
2018-09-21T08:03:40.825Z,86.38
2018-09-21T08:06:10.052Z,85.76
2018-09-21T08:08:39.300Z,86.03
2018-09-21T08:11:08.810Z,84.55
2018-09-21T08:13:37.986Z,84.62
2018-09-21T08:16:07.149Z,84.85
2018-09-21T08:18:36.360Z,86.67
2018-09-21T08:21:05.673Z,84.84
2018-09-21T08:23:35.348Z,83.34
2018-09-21T08:26:04.464Z,82.24
2018-09-21T08:28:34.242Z,82.61
2018-09-21T08:31:03.759Z,80.42
2018-09-21T08:33:33.140Z,80.01
2018-09-21T08:36:02.394Z,79.97
2018-09-21T08:38:31.842Z,80.97
2018-09-21T08:41:01.154Z,80.24
2018-09-21T08:43:30.381Z,79.78
2018-09-21T08:46:00.901Z,77.89
2018-09-21T08:48:30.106Z,77.78
2018-09-21T08:50:59.252Z,77.76
2018-09-21T08:53:29.209Z,76.72
2018-09-21T08:55:58.465Z,75.77
2018-09-21T08:58:27.574Z,77.47
2018-09-21T09:00:57.069Z,76.50
2018-09-21T09:03:26.352Z,76.63
2018-09-21T09:05:55.549Z,74.49
2018-09-21T09:08:26.065Z,74.18
2018-09-21T09:10:55.411Z,73.74
2018-09-21T09:13:24.609Z,73.22
2018-09-21T09:15:54.021Z,73.37
2018-09-21T09:18:23.208Z,72.85
2018-09-21T09:20:52.365Z,70.66
2018-09-21T09:23:21.846Z,68.97
2018-09-21T09:25:51.128Z,70.33
2018-09-21T09:28:20.299Z,68.47
2018-09-21T09:30:49.744Z,70.10
2018-09-21T09:33:18.882Z,70.59
2018-09-21T09:35:48.039Z,69.56
2018-09-21T09:38:17.214Z,69.60
2018-09-21T09:40:46.482Z,68.82
2018-09-21T09:43:15.653Z,66.69
2018-09-21T09:45:44.790Z,66.56
2018-09-21T09:48:14.054Z,66.53
2018-09-21T09:50:43.179Z,65.87
2018-09-21T09:53:12.353Z,64.66
2018-09-21T09:55:41.507Z,64.07
2018-09-21T09:58:10.705Z,63.48
2018-09-21T10:00:45.233Z,62.89
2018-09-21T10:03:14.447Z,61.81
2018-09-21T10:05:44.512Z,60.10
2018-09-21T10:08:14.241Z,60.27
2018-09-21T10:10:43.406Z,61.75
2018-09-21T10:13:12.579Z,58.92
2018-09-21T10:15:41.765Z,56.66
2018-09-21T10:18:10.940Z,56.54
2018-09-21T10:20:40.338Z,54.97
2018-09-21T10:23:09.634Z,58.19
2018-09-21T10:25:38.755Z,56.92
2018-09-21T10:28:08.086Z,54.76
2018-09-21T10:30:37.190Z,53.25
2018-09-21T10:33:06.493Z,56.05
2018-09-21T10:35:35.703Z,53.74
2018-09-21T10:38:04.776Z,53.21
2018-09-21T10:40:33.927Z,52.20
2018-09-21T10:43:03.206Z,53.24
2018-09-21T10:45:32.221Z,53.16
2018-09-21T10:48:01.347Z,52.51
2018-09-21T10:50:30.482Z,53.40
2018-09-21T10:52:59.666Z,52.83
2018-09-21T10:55:28.815Z,53.60
2018-09-21T10:57:58.009Z,51.38
2018-09-21T11:00:28.164Z,52.31
2018-09-21T11:02:57.301Z,51.83
2018-09-21T11:05:26.460Z,52.03
2018-09-21T11:07:55.596Z,52.71
2018-09-21T11:10:24.717Z,50.71
2018-09-21T11:12:53.889Z,49.58
2018-09-21T11:15:23.016Z,51.09
2018-09-21T11:17:52.802Z,49.67
2018-09-21T11:20:21.938Z,50.05
2018-09-21T11:22:51.153Z,49.48
2018-09-21T11:25:20.281Z,51.25
2018-09-21T11:27:49.401Z,51.96
2018-09-21T11:30:18.587Z,51.25
2018-09-21T11:32:47.969Z,49.96
2018-09-21T11:35:17.149Z,50.14
2018-09-21T11:37:46.611Z,48.07
2018-09-21T11:40:15.869Z,48.81
2018-09-21T11:42:45.040Z,49.91
2018-09-21T11:45:14.451Z,50.82
2018-09-21T11:47:47.402Z,50.26
2018-09-21T11:50:16.652Z,47.92
2018-09-21T11:52:45.758Z,49.13
2018-09-21T11:55:15.093Z,48.39
2018-09-21T11:57:44.331Z,47.00
2018-09-21T12:00:13.546Z,48.31
2018-09-21T12:02:46.507Z,47.64
2018-09-21T12:05:15.737Z,46.98
2018-09-21T12:07:44.873Z,46.06
2018-09-21T12:10:14.169Z,46.10
2018-09-21T12:12:43.392Z,48.27
2018-09-21T12:15:12.565Z,46.38
2018-09-21T12:17:41.791Z,44.21
2018-09-21T12:20:10.948Z,44.08
2018-09-21T12:22:40.129Z,44.56
2018-09-21T12:25:09.382Z,43.28
2018-09-21T12:27:38.640Z,44.16
2018-09-21T12:30:15.309Z,43.31
2018-09-21T12:32:44.452Z,43.21
2018-09-21T12:35:13.657Z,43.65
2018-09-21T12:37:42.877Z,44.50
2018-09-21T12:40:12.236Z,44.94
2018-09-21T12:42:41.349Z,43.91
2018-09-21T12:45:10.579Z,43.32
2018-09-21T12:47:39.763Z,42.69
2018-09-21T12:50:08.957Z,43.51
2018-09-21T12:52:38.482Z,44.07
2018-09-21T12:55:07.847Z,43.14
2018-09-21T12:57:37.192Z,43.24
2018-09-21T13:00:08.526Z,43.74
2018-09-21T13:02:38.155Z,44.28
2018-09-21T13:05:07.711Z,44.19
2018-09-21T13:07:37.663Z,44.57
2018-09-21T13:10:08.436Z,44.96
2018-09-21T13:12:38.132Z,44.11
2018-09-21T13:15:07.637Z,44.82
2018-09-21T13:17:36.840Z,43.27
2018-09-21T13:20:06.339Z,44.44
2018-09-21T13:22:35.591Z,44.63
2018-09-21T13:25:04.896Z,44.35
2018-09-21T13:27:34.663Z,44.59
2018-09-21T13:30:04.828Z,46.31
2018-09-21T13:32:34.031Z,44.94
2018-09-21T13:35:03.300Z,45.17
2018-09-21T13:37:32.478Z,44.61
2018-09-21T13:40:01.653Z,46.55
2018-09-21T13:42:30.825Z,46.25
2018-09-21T13:45:00.053Z,46.92
2018-09-21T13:47:29.217Z,47.23
2018-09-21T13:49:58.360Z,47.68
2018-09-21T13:52:27.557Z,45.74
2018-09-21T13:54:56.744Z,46.61
2018-09-21T13:57:26.189Z,44.05
2018-09-21T13:59:55.545Z,45.50
2018-09-21T14:02:24.735Z,44.59
2018-09-21T14:04:54.052Z,44.87
2018-09-21T14:07:23.296Z,44.82
2018-09-21T14:09:52.617Z,45.65
2018-09-21T14:12:21.822Z,44.43
2018-09-21T14:14:51.129Z,45.47
2018-09-21T14:17:20.293Z,46.55
2018-09-21T14:19:49.761Z,46.71
2018-09-21T14:22:18.935Z,46.05
2018-09-21T14:24:48.181Z,44.34
2018-09-21T14:27:17.365Z,44.62
2018-09-21T14:29:46.612Z,44.67
2018-09-21T14:32:16.137Z,44.25
2018-09-21T14:34:45.509Z,44.37
2018-09-21T14:37:15.073Z,44.83
2018-09-21T14:39:44.264Z,45.39
2018-09-21T14:42:13.761Z,45.51
2018-09-21T14:44:42.989Z,45.88
2018-09-21T14:47:13.260Z,45.09
2018-09-21T14:49:42.503Z,44.34
2018-09-21T14:52:11.951Z,44.52
2018-09-21T14:54:41.050Z,44.74
2018-09-21T14:57:10.245Z,45.67
2018-09-21T14:59:40.773Z,45.52
2018-09-21T15:02:10.082Z,45.50
2018-09-21T15:04:39.383Z,43.73
2018-09-21T15:07:09.148Z,45.09
2018-09-21T15:09:38.472Z,46.03
2018-09-21T15:12:07.693Z,44.60
2018-09-21T15:14:38.453Z,45.85
2018-09-21T15:17:07.813Z,44.97
2018-09-21T15:19:36.991Z,44.83
2018-09-21T15:22:06.530Z,44.96
2018-09-21T15:24:35.718Z,45.98
2018-09-21T15:27:05.285Z,46.37
2018-09-21T15:29:34.399Z,45.00
2018-09-21T15:32:03.553Z,46.50
2018-09-21T15:34:32.691Z,46.02
2018-09-21T15:37:01.832Z,45.89
2018-09-21T15:39:30.938Z,46.45
2018-09-21T15:42:01.023Z,47.30
2018-09-21T15:44:30.171Z,46.61
2018-09-21T15:46:59.332Z,48.06
2018-09-21T15:49:28.534Z,48.05
2018-09-21T15:51:57.756Z,48.02
2018-09-21T15:54:27.152Z,48.86
2018-09-21T15:56:56.373Z,48.20
2018-09-21T15:59:25.566Z,48.78
2018-09-21T16:01:54.766Z,48.84
2018-09-21T16:04:23.900Z,48.72
2018-09-21T16:06:53.079Z,49.64
2018-09-21T16:09:22.212Z,49.18
2018-09-21T16:11:51.343Z,49.92
2018-09-21T16:14:20.535Z,50.36
2018-09-21T16:16:49.652Z,49.78
2018-09-21T16:19:19.898Z,50.00
2018-09-21T16:21:49.389Z,51.08
2018-09-21T16:24:18.553Z,52.17
2018-09-21T16:26:48.011Z,52.41
2018-09-21T16:29:17.449Z,53.76
2018-09-21T16:31:46.606Z,53.29
2018-09-21T16:34:16.022Z,54.69
2018-09-21T16:36:45.483Z,56.31
2018-09-21T16:39:14.668Z,56.57
2018-09-21T16:41:44.046Z,58.55
2018-09-21T16:44:13.266Z,59.15
2018-09-21T16:46:42.784Z,58.98
2018-09-21T16:49:12.248Z,59.20
2018-09-21T16:51:41.453Z,61.77
2018-09-21T16:54:10.561Z,61.88
2018-09-21T16:56:40.452Z,62.17
2018-09-21T16:59:09.627Z,62.73
2018-09-21T17:01:38.754Z,63.82
2018-09-21T17:04:08.775Z,64.96
2018-09-21T17:06:37.954Z,65.52
2018-09-21T17:09:09.985Z,65.18
2018-09-21T17:11:39.125Z,65.63
2018-09-21T17:14:09.225Z,66.00
2018-09-21T17:16:38.694Z,65.36
2018-09-21T17:19:08.537Z,66.72
2018-09-21T17:21:37.737Z,66.73
2018-09-21T17:24:07.014Z,67.02
2018-09-21T17:26:36.475Z,67.99
2018-09-21T17:29:05.817Z,67.52
2018-09-21T17:31:35.131Z,68.32
2018-09-21T17:34:04.253Z,67.65
2018-09-21T17:36:33.471Z,68.57
2018-09-21T17:39:02.738Z,69.27
2018-09-21T17:41:31.864Z,69.22
2018-09-21T17:44:01.094Z,70.38
2018-09-21T17:46:30.251Z,70.87
2018-09-21T17:48:59.682Z,71.81
2018-09-21T17:51:29.298Z,72.52
2018-09-21T17:53:58.460Z,72.67
2018-09-21T17:56:27.628Z,72.89
2018-09-21T17:58:56.765Z,73.21
2018-09-21T18:01:26.101Z,74.28
2018-09-21T18:03:55.338Z,74.80
2018-09-21T18:06:24.496Z,74.08
2018-09-21T18:08:53.676Z,74.59
2018-09-21T18:11:23.770Z,75.38
2018-09-21T18:13:53.001Z,75.34
2018-09-21T18:16:22.252Z,75.00
2018-09-21T18:18:51.450Z,75.44
2018-09-21T18:21:20.587Z,76.45
2018-09-21T18:23:49.980Z,77.24
2018-09-21T18:26:19.085Z,77.18
2018-09-21T18:28:48.259Z,77.71
2018-09-21T18:31:17.489Z,78.43
2018-09-21T18:33:46.687Z,78.91
2018-09-21T18:36:15.801Z,79.01
2018-09-21T18:38:45.004Z,78.98
2018-09-21T18:41:14.178Z,79.36
2018-09-21T18:43:43.426Z,78.99
2018-09-21T18:46:12.548Z,79.19
2018-09-21T18:48:41.744Z,79.10
2018-09-21T18:51:10.989Z,79.82
2018-09-21T18:53:40.825Z,79.31
2018-09-21T18:56:09.938Z,80.95
2018-09-21T18:58:39.062Z,81.07
2018-09-21T19:01:08.301Z,81.50
2018-09-21T19:03:37.441Z,81.54
2018-09-21T19:06:06.637Z,81.90
2018-09-21T19:08:35.810Z,81.11
2018-09-21T19:11:04.985Z,81.20
2018-09-21T19:13:34.148Z,81.42
2018-09-21T19:16:03.928Z,81.48
2018-09-21T19:18:33.091Z,82.61
2018-09-21T19:21:02.242Z,82.25
2018-09-21T19:23:31.437Z,82.13
2018-09-21T19:26:01.550Z,83.50
2018-09-21T19:28:30.707Z,83.12
2018-09-21T19:31:01.502Z,82.47
2018-09-21T19:33:30.672Z,82.38
2018-09-21T19:35:59.845Z,82.32
2018-09-21T19:38:29.111Z,82.67
2018-09-21T19:40:58.313Z,82.33
2018-09-21T19:43:27.510Z,82.36
2018-09-21T19:45:56.668Z,82.66
2018-09-21T19:48:25.833Z,82.42
2018-09-21T19:50:55.071Z,82.75
2018-09-21T19:53:25.445Z,83.26
2018-09-21T19:55:54.621Z,83.33
2018-09-21T19:58:23.863Z,82.87
2018-09-21T20:00:53.084Z,83.48
2018-09-21T20:03:22.685Z,83.56
2018-09-21T20:05:51.870Z,84.31
2018-09-21T20:08:21.096Z,83.38
2018-09-21T20:10:50.308Z,82.81
2018-09-21T20:13:19.582Z,84.16
2018-09-21T20:15:48.765Z,84.40
2018-09-21T20:18:18.050Z,82.42
2018-09-21T20:20:48.666Z,81.53
2018-09-21T20:23:17.788Z,81.71
2018-09-21T20:25:47.865Z,82.95
2018-09-21T20:28:17.089Z,85.68
2018-09-21T20:30:51.430Z,85.51
2018-09-21T20:33:25.675Z,87.14
2018-09-21T20:35:54.868Z,88.60
2018-09-21T20:41:02.496Z,92.10
2018-09-21T20:43:32.145Z,92.86
2018-09-21T20:46:01.293Z,94.02
2018-09-21T20:48:30.435Z,93.74
2018-09-21T20:50:59.564Z,94.30
2018-09-21T20:53:28.680Z,94.56
2018-09-21T20:55:57.854Z,95.71
2018-09-21T20:58:26.996Z,97.90
2018-09-21T21:00:56.199Z,98.39
2018-09-21T21:03:26.884Z,99.14
2018-09-21T21:05:56.002Z,98.45
2018-09-21T21:08:25.484Z,98.98
2018-09-21T21:11:04.496Z,99.53
2018-09-21T21:13:34.657Z,99.84
2018-09-21T21:16:03.837Z,99.97
2018-09-21T21:18:32.992Z,100.00
2018-09-21T21:21:02.242Z,100.00
2018-09-21T21:23:31.382Z,100.00
2018-09-21T21:26:02.213Z,100.00
2018-09-21T21:28:31.507Z,100.00
2018-09-21T21:31:00.711Z,100.00
2018-09-21T21:33:29.832Z,100.00
2018-09-21T21:35:59.337Z,100.00
2018-09-21T21:38:31.536Z,100.00
2018-09-21T21:41:00.786Z,100.00
2018-09-21T21:43:30.277Z,100.00
2018-09-21T21:46:02.379Z,100.00
2018-09-21T21:48:31.593Z,100.00
2018-09-21T21:51:03.591Z,100.00
2018-09-21T21:53:33.146Z,100.00
2018-09-21T21:56:02.322Z,100.00
2018-09-21T21:58:32.063Z,100.00
2018-09-21T22:01:06.548Z,100.00
2018-09-21T22:03:35.902Z,100.00
2018-09-21T22:06:06.687Z,100.00
2018-09-21T22:08:38.048Z,100.00
2018-09-21T22:11:16.928Z,100.00
2018-09-21T22:13:51.465Z,100.00
2018-09-21T22:16:20.699Z,100.00
2018-09-21T22:18:50.283Z,99.70
2018-09-21T22:21:19.489Z,99.48
2018-09-21T22:23:48.624Z,99.10
2018-09-21T22:26:17.824Z,99.41
2018-09-21T22:28:47.201Z,99.60
2018-09-21T22:31:16.439Z,99.04
2018-09-21T22:33:45.588Z,98.82
2018-09-21T22:36:14.744Z,98.54
2018-09-21T22:38:44.008Z,98.23
2018-09-21T22:41:13.862Z,98.33
2018-09-21T22:43:43.026Z,99.11
2018-09-21T22:46:12.228Z,99.52
2018-09-21T22:48:41.469Z,99.31
2018-09-21T22:51:10.611Z,98.22
2018-09-21T22:53:41.913Z,97.56
2018-09-21T22:56:11.106Z,97.27
2018-09-21T22:58:40.358Z,97.61
2018-09-21T23:01:10.395Z,97.52
2018-09-21T23:03:39.645Z,97.04
2018-09-21T23:06:09.076Z,97.82
2018-09-21T23:08:38.233Z,98.03
2018-09-21T23:11:07.693Z,98.07
2018-09-21T23:13:36.776Z,99.17
2018-09-21T23:16:05.953Z,98.17
2018-09-21T23:18:35.110Z,97.62
2018-09-21T23:21:04.282Z,98.06
2018-09-21T23:23:33.438Z,97.25
2018-09-21T23:26:02.650Z,97.74
2018-09-21T23:28:31.743Z,96.42
2018-09-21T23:31:00.846Z,91.47
2018-09-21T23:33:29.978Z,90.64
2018-09-21T23:35:59.096Z,88.97
2018-09-21T23:38:28.309Z,89.48
2018-09-21T23:40:57.549Z,88.31
2018-09-21T23:43:26.719Z,88.79
2018-09-21T23:45:55.839Z,86.36
2018-09-21T23:48:24.998Z,85.45
2018-09-21T23:50:54.141Z,85.16
2018-09-21T23:53:23.881Z,84.86
2018-09-21T23:55:53.044Z,85.83
2018-09-21T23:58:22.227Z,84.99
